sensor_id;sensor_type;location;lat;lon;timestamp;temperature;humidity
33023;DHT22;19390;51.460;5.710;2023-02-28T00:00:22;-2.30;99.90
33023;DHT22;19390;51.460;5.710;2023-02-28T00:02:51;-2.40;99.90
33023;DHT22;19390;51.460;5.710;2023-02-28T00:05:19;-2.50;99.90
33023;DHT22;19390;51.460;5.710;2023-02-28T00:07:45;-2.50;99.90
33023;DHT22;19390;51.460;5.710;2023-02-28T00:10:20;-2.50;99.90
33023;DHT22;19390;51.460;5.710;2023-02-28T00:12:50;-2.50;99.90
33023;DHT22;19390;51.460;5.710;2023-02-28T00:15:16;-2.70;99.90
33023;DHT22;19390;51.460;5.710;2023-02-28T00:17:42;-2.70;99.90
33023;DHT22;19390;51.460;5.710;2023-02-28T00:20:08;-2.70;99.90
33023;DHT22;19390;51.460;5.710;2023-02-28T00:22:43;-2.80;99.90
33023;DHT22;19390;51.460;5.710;2023-02-28T00:25:11;-2.70;99.90
33023;DHT22;19390;51.460;5.710;2023-02-28T00:27:38;-2.60;99.90
33023;DHT22;19390;51.460;5.710;2023-02-28T00:30:06;-2.60;99.90
33023;DHT22;19390;51.460;5.710;2023-02-28T00:32:33;-2.50;99.90
33023;DHT22;19390;51.460;5.710;2023-02-28T00:35:09;-2.40;99.90
33023;DHT22;19390;51.460;5.710;2023-02-28T00:37:44;-2.30;99.90
33023;DHT22;19390;51.460;5.710;2023-02-28T00:40:11;-2.40;99.90
33023;DHT22;19390;51.460;5.710;2023-02-28T00:42:42;-2.40;99.90
33023;DHT22;19390;51.460;5.710;2023-02-28T00:45:08;-2.50;99.90
33023;DHT22;19390;51.460;5.710;2023-02-28T00:47:34;-2.40;99.90
33023;DHT22;19390;51.460;5.710;2023-02-28T00:50:01;-2.50;99.90
33023;DHT22;19390;51.460;5.710;2023-02-28T00:52:28;-2.50;99.90
33023;DHT22;19390;51.460;5.710;2023-02-28T00:54:54;-2.50;99.90
33023;DHT22;19390;51.460;5.710;2023-02-28T00:57:20;-2.50;99.90
33023;DHT22;19390;51.460;5.710;2023-02-28T00:59:46;-2.40;99.90
33023;DHT22;19390;51.460;5.710;2023-02-28T01:02:12;-2.30;99.90
33023;DHT22;19390;51.460;5.710;2023-02-28T01:04:38;-2.30;99.90
33023;DHT22;19390;51.460;5.710;2023-02-28T01:07:03;-2.30;99.90
33023;DHT22;19390;51.460;5.710;2023-02-28T01:09:29;-2.30;99.90
33023;DHT22;19390;51.460;5.710;2023-02-28T01:11:55;-2.20;99.90
33023;DHT22;19390;51.460;5.710;2023-02-28T01:14:21;-2.40;99.90
33023;DHT22;19390;51.460;5.710;2023-02-28T01:16:47;-2.60;99.90
33023;DHT22;19390;51.460;5.710;2023-02-28T01:19:12;-2.60;99.90
33023;DHT22;19390;51.460;5.710;2023-02-28T01:21:38;-2.60;99.90
33023;DHT22;19390;51.460;5.710;2023-02-28T01:24:04;-2.60;99.90
33023;DHT22;19390;51.460;5.710;2023-02-28T01:26:31;-2.70;99.90
33023;DHT22;19390;51.460;5.710;2023-02-28T01:28:57;-2.70;99.90
33023;DHT22;19390;51.460;5.710;2023-02-28T01:31:24;-2.60;99.90
33023;DHT22;19390;51.460;5.710;2023-02-28T01:33:49;-2.50;99.90
33023;DHT22;19390;51.460;5.710;2023-02-28T01:36:21;-2.60;99.90
33023;DHT22;19390;51.460;5.710;2023-02-28T01:38:47;-2.60;99.90
33023;DHT22;19390;51.460;5.710;2023-02-28T01:41:26;-2.60;99.90
33023;DHT22;19390;51.460;5.710;2023-02-28T01:44:05;-2.50;99.90
33023;DHT22;19390;51.460;5.710;2023-02-28T01:46:33;-2.30;99.90
33023;DHT22;19390;51.460;5.710;2023-02-28T01:49:13;-2.30;99.90
33023;DHT22;19390;51.460;5.710;2023-02-28T01:51:51;-2.30;99.90
33023;DHT22;19390;51.460;5.710;2023-02-28T01:54:27;-2.20;99.90
33023;DHT22;19390;51.460;5.710;2023-02-28T01:57:04;-2.30;99.90
33023;DHT22;19390;51.460;5.710;2023-02-28T01:59:45;-2.20;99.90
33023;DHT22;19390;51.460;5.710;2023-02-28T02:02:12;-2.10;99.90
33023;DHT22;19390;51.460;5.710;2023-02-28T02:05:09;-2.20;99.90
33023;DHT22;19390;51.460;5.710;2023-02-28T02:07:36;-2.10;99.90
33023;DHT22;19390;51.460;5.710;2023-02-28T02:15:34;-2.00;99.90
33023;DHT22;19390;51.460;5.710;2023-02-28T02:27:03;-1.90;99.90
33023;DHT22;19390;51.460;5.710;2023-02-28T02:40:23;-1.90;99.90
33023;DHT22;19390;51.460;5.710;2023-02-28T02:42:51;-1.90;99.90
33023;DHT22;19390;51.460;5.710;2023-02-28T02:45:31;-1.90;99.90
33023;DHT22;19390;51.460;5.710;2023-02-28T02:48:03;-1.90;99.90
33023;DHT22;19390;51.460;5.710;2023-02-28T02:50:34;-2.00;99.90
33023;DHT22;19390;51.460;5.710;2023-02-28T02:53:03;-1.90;99.90
33023;DHT22;19390;51.460;5.710;2023-02-28T02:55:32;-1.90;99.90
33023;DHT22;19390;51.460;5.710;2023-02-28T02:58:04;-2.00;99.90
33023;DHT22;19390;51.460;5.710;2023-02-28T03:00:38;-2.10;99.90
33023;DHT22;19390;51.460;5.710;2023-02-28T03:03:07;-2.10;99.90
33023;DHT22;19390;51.460;5.710;2023-02-28T03:05:39;-2.10;99.90
33023;DHT22;19390;51.460;5.710;2023-02-28T03:08:07;-2.20;99.90
33023;DHT22;19390;51.460;5.710;2023-02-28T03:10:39;-2.10;99.90
33023;DHT22;19390;51.460;5.710;2023-02-28T03:19:37;-1.80;99.90
33023;DHT22;19390;51.460;5.710;2023-02-28T03:24:49;-1.90;99.90
33023;DHT22;19390;51.460;5.710;2023-02-28T03:27:43;-1.90;99.90
33023;DHT22;19390;51.460;5.710;2023-02-28T03:30:11;-1.80;99.90
33023;DHT22;19390;51.460;5.710;2023-02-28T03:32:48;-1.70;99.90
33023;DHT22;19390;51.460;5.710;2023-02-28T03:35:23;-1.50;99.90
33023;DHT22;19390;51.460;5.710;2023-02-28T03:37:54;-1.40;99.90
33023;DHT22;19390;51.460;5.710;2023-02-28T03:40:25;-1.40;99.90
33023;DHT22;19390;51.460;5.710;2023-02-28T03:42:59;-1.30;99.90
33023;DHT22;19390;51.460;5.710;2023-02-28T03:45:29;-1.20;99.90
33023;DHT22;19390;51.460;5.710;2023-02-28T03:48:16;-1.10;99.90
33023;DHT22;19390;51.460;5.710;2023-02-28T03:50:47;-1.10;99.90
33023;DHT22;19390;51.460;5.710;2023-02-28T03:53:28;-1.10;99.90
33023;DHT22;19390;51.460;5.710;2023-02-28T03:56:26;-1.00;99.90
33023;DHT22;19390;51.460;5.710;2023-02-28T03:59:15;-0.90;96.60
33023;DHT22;19390;51.460;5.710;2023-02-28T04:01:48;-0.80;1.00
33023;DHT22;19390;51.460;5.710;2023-02-28T04:04:15;-0.80;1.00
33023;DHT22;19390;51.460;5.710;2023-02-28T04:06:42;-0.70;1.00
33023;DHT22;19390;51.460;5.710;2023-02-28T04:09:10;-0.70;1.00
33023;DHT22;19390;51.460;5.710;2023-02-28T04:11:48;-0.70;1.00
33023;DHT22;19390;51.460;5.710;2023-02-28T04:14:15;-0.60;1.00
33023;DHT22;19390;51.460;5.710;2023-02-28T04:16:42;-0.60;1.00
33023;DHT22;19390;51.460;5.710;2023-02-28T04:19:09;-0.50;1.00
33023;DHT22;19390;51.460;5.710;2023-02-28T04:21:42;-0.40;1.00
33023;DHT22;19390;51.460;5.710;2023-02-28T04:24:10;-0.40;99.90
33023;DHT22;19390;51.460;5.710;2023-02-28T04:26:41;-0.40;99.90
33023;DHT22;19390;51.460;5.710;2023-02-28T04:29:09;-0.40;99.90
33023;DHT22;19390;51.460;5.710;2023-02-28T04:31:35;-0.40;99.90
33023;DHT22;19390;51.460;5.710;2023-02-28T04:34:02;-0.40;99.90
33023;DHT22;19390;51.460;5.710;2023-02-28T04:36:28;-0.40;1.00
33023;DHT22;19390;51.460;5.710;2023-02-28T04:38:53;-0.40;1.00
33023;DHT22;19390;51.460;5.710;2023-02-28T04:41:19;-0.50;1.00
33023;DHT22;19390;51.460;5.710;2023-02-28T04:43:45;-0.50;1.00
33023;DHT22;19390;51.460;5.710;2023-02-28T04:46:11;-0.50;1.00
33023;DHT22;19390;51.460;5.710;2023-02-28T04:48:38;-0.60;1.00
33023;DHT22;19390;51.460;5.710;2023-02-28T04:51:10;-0.70;1.00
33023;DHT22;19390;51.460;5.710;2023-02-28T04:53:37;-0.80;1.00
33023;DHT22;19390;51.460;5.710;2023-02-28T04:56:05;-1.00;23.20
33023;DHT22;19390;51.460;5.710;2023-02-28T04:58:31;-1.00;99.90
33023;DHT22;19390;51.460;5.710;2023-02-28T05:01:25;-1.00;99.90
33023;DHT22;19390;51.460;5.710;2023-02-28T05:03:52;-1.00;99.90
33023;DHT22;19390;51.460;5.710;2023-02-28T05:06:20;-1.00;99.90
33023;DHT22;19390;51.460;5.710;2023-02-28T05:08:46;-1.00;99.90
33023;DHT22;19390;51.460;5.710;2023-02-28T05:13:47;-1.00;99.90
33023;DHT22;19390;51.460;5.710;2023-02-28T05:16:14;-1.10;99.90
33023;DHT22;19390;51.460;5.710;2023-02-28T05:18:40;-1.20;99.90
33023;DHT22;19390;51.460;5.710;2023-02-28T05:21:12;-1.10;99.90
33023;DHT22;19390;51.460;5.710;2023-02-28T05:23:45;-1.00;99.90
33023;DHT22;19390;51.460;5.710;2023-02-28T05:26:11;-0.90;99.90
33023;DHT22;19390;51.460;5.710;2023-02-28T05:28:36;-0.90;99.90
33023;DHT22;19390;51.460;5.710;2023-02-28T05:31:02;-0.80;99.90
33023;DHT22;19390;51.460;5.710;2023-02-28T05:33:28;-0.80;99.90
33023;DHT22;19390;51.460;5.710;2023-02-28T05:35:54;-0.80;99.90
33023;DHT22;19390;51.460;5.710;2023-02-28T05:38:21;-0.80;99.90
33023;DHT22;19390;51.460;5.710;2023-02-28T05:40:47;-0.90;99.90
33023;DHT22;19390;51.460;5.710;2023-02-28T05:43:13;-1.00;99.90
33023;DHT22;19390;51.460;5.710;2023-02-28T05:45:39;-1.00;99.90
33023;DHT22;19390;51.460;5.710;2023-02-28T05:48:05;-1.00;99.90
33023;DHT22;19390;51.460;5.710;2023-02-28T05:50:30;-1.10;99.90
33023;DHT22;19390;51.460;5.710;2023-02-28T05:52:56;-1.00;99.90
33023;DHT22;19390;51.460;5.710;2023-02-28T05:55:22;-1.10;99.90
33023;DHT22;19390;51.460;5.710;2023-02-28T05:57:48;-1.10;99.90
33023;DHT22;19390;51.460;5.710;2023-02-28T06:00:14;-1.10;99.90
33023;DHT22;19390;51.460;5.710;2023-02-28T06:02:41;-1.10;99.90
33023;DHT22;19390;51.460;5.710;2023-02-28T06:05:14;-1.10;99.90
33023;DHT22;19390;51.460;5.710;2023-02-28T06:07:39;-1.10;99.90
33023;DHT22;19390;51.460;5.710;2023-02-28T06:10:06;-1.10;99.90
33023;DHT22;19390;51.460;5.710;2023-02-28T06:12:33;-1.10;99.90
33023;DHT22;19390;51.460;5.710;2023-02-28T06:14:59;-1.20;99.90
33023;DHT22;19390;51.460;5.710;2023-02-28T06:17:25;-1.20;99.90
33023;DHT22;19390;51.460;5.710;2023-02-28T06:19:51;-1.20;99.90
33023;DHT22;19390;51.460;5.710;2023-02-28T06:22:17;-1.30;99.90
33023;DHT22;19390;51.460;5.710;2023-02-28T06:24:43;-1.30;99.90
33023;DHT22;19390;51.460;5.710;2023-02-28T06:27:08;-1.20;99.90
33023;DHT22;19390;51.460;5.710;2023-02-28T06:29:34;-1.40;99.90
33023;DHT22;19390;51.460;5.710;2023-02-28T06:32:00;-1.50;99.90
33023;DHT22;19390;51.460;5.710;2023-02-28T06:34:26;-1.50;99.90
33023;DHT22;19390;51.460;5.710;2023-02-28T06:36:52;-1.40;99.90
33023;DHT22;19390;51.460;5.710;2023-02-28T06:39:18;-1.40;99.90
33023;DHT22;19390;51.460;5.710;2023-02-28T06:41:44;-1.40;99.90
33023;DHT22;19390;51.460;5.710;2023-02-28T06:44:12;-0.90;99.90
33023;DHT22;19390;51.460;5.710;2023-02-28T06:46:40;0.50;1.00
33023;DHT22;19390;51.460;5.710;2023-02-28T06:49:06;0.30;1.00
33023;DHT22;19390;51.460;5.710;2023-02-28T06:51:34;0.00;1.00
33023;DHT22;19390;51.460;5.710;2023-02-28T06:54:00;0.80;1.00
33023;DHT22;19390;51.460;5.710;2023-02-28T06:56:26;1.80;99.90
33023;DHT22;19390;51.460;5.710;2023-02-28T06:58:51;1.80;19.80
33023;DHT22;19390;51.460;5.710;2023-02-28T07:01:20;1.20;99.90
33023;DHT22;19390;51.460;5.710;2023-02-28T07:03:48;1.50;99.90
33023;DHT22;19390;51.460;5.710;2023-02-28T07:06:23;2.40;1.00
33023;DHT22;19390;51.460;5.710;2023-02-28T07:08:51;2.40;99.90
33023;DHT22;19390;51.460;5.710;2023-02-28T07:11:18;1.90;1.00
33023;DHT22;19390;51.460;5.710;2023-02-28T07:13:44;2.20;1.00
33023;DHT22;19390;51.460;5.710;2023-02-28T07:16:11;3.70;1.00
33023;DHT22;19390;51.460;5.710;2023-02-28T07:18:37;4.30;22.80
33023;DHT22;19390;51.460;5.710;2023-02-28T07:21:05;5.80;99.90
33023;DHT22;19390;51.460;5.710;2023-02-28T07:23:31;7.00;1.00
33023;DHT22;19390;51.460;5.710;2023-02-28T07:25:56;7.70;99.90
33023;DHT22;19390;51.460;5.710;2023-02-28T07:28:22;7.60;99.90
33023;DHT22;19390;51.460;5.710;2023-02-28T07:30:48;8.50;1.00
33023;DHT22;19390;51.460;5.710;2023-02-28T07:33:14;4.90;1.00
33023;DHT22;19390;51.460;5.710;2023-02-28T07:35:40;2.50;1.00
33023;DHT22;19390;51.460;5.710;2023-02-28T07:38:06;2.70;1.00
33023;DHT22;19390;51.460;5.710;2023-02-28T07:40:33;3.30;1.00
33023;DHT22;19390;51.460;5.710;2023-02-28T07:43:03;5.20;1.00
33023;DHT22;19390;51.460;5.710;2023-02-28T07:45:30;7.70;99.90
33023;DHT22;19390;51.460;5.710;2023-02-28T07:47:57;7.20;1.00
33023;DHT22;19390;51.460;5.710;2023-02-28T07:50:23;7.90;1.00
33023;DHT22;19390;51.460;5.710;2023-02-28T07:52:49;6.80;1.00
33023;DHT22;19390;51.460;5.710;2023-02-28T07:55:14;6.60;99.90
33023;DHT22;19390;51.460;5.710;2023-02-28T07:57:42;8.00;1.00
33023;DHT22;19390;51.460;5.710;2023-02-28T08:00:09;7.60;1.00
33023;DHT22;19390;51.460;5.710;2023-02-28T08:02:36;8.40;1.00
33023;DHT22;19390;51.460;5.710;2023-02-28T08:05:02;9.50;99.90
33023;DHT22;19390;51.460;5.710;2023-02-28T08:07:28;10.20;1.00
33023;DHT22;19390;51.460;5.710;2023-02-28T08:09:53;8.80;1.00
33023;DHT22;19390;51.460;5.710;2023-02-28T08:12:19;9.90;99.90
33023;DHT22;19390;51.460;5.710;2023-02-28T08:14:45;11.00;99.90
33023;DHT22;19390;51.460;5.710;2023-02-28T08:17:11;8.80;1.00
33023;DHT22;19390;51.460;5.710;2023-02-28T08:19:36;10.30;99.90
33023;DHT22;19390;51.460;5.710;2023-02-28T08:22:02;12.30;99.90
33023;DHT22;19390;51.460;5.710;2023-02-28T08:24:28;10.40;1.00
33023;DHT22;19390;51.460;5.710;2023-02-28T08:26:55;11.00;1.00
33023;DHT22;19390;51.460;5.710;2023-02-28T08:29:21;9.10;99.90
33023;DHT22;19390;51.460;5.710;2023-02-28T08:31:46;10.10;1.00
33023;DHT22;19390;51.460;5.710;2023-02-28T08:34:15;10.80;1.00
33023;DHT22;19390;51.460;5.710;2023-02-28T08:36:41;9.70;1.00
33023;DHT22;19390;51.460;5.710;2023-02-28T08:39:08;11.90;99.90
33023;DHT22;19390;51.460;5.710;2023-02-28T08:41:34;11.00;99.90
33023;DHT22;19390;51.460;5.710;2023-02-28T08:44:00;12.70;99.90
33023;DHT22;19390;51.460;5.710;2023-02-28T08:46:26;13.90;99.90
33023;DHT22;19390;51.460;5.710;2023-02-28T08:48:54;13.80;99.90
33023;DHT22;19390;51.460;5.710;2023-02-28T08:51:20;10.40;99.90
33023;DHT22;19390;51.460;5.710;2023-02-28T08:53:57;9.80;99.90
33023;DHT22;19390;51.460;5.710;2023-02-28T08:56:23;10.50;99.90
33023;DHT22;19390;51.460;5.710;2023-02-28T08:58:50;10.30;99.90
33023;DHT22;19390;51.460;5.710;2023-02-28T09:01:19;10.20;99.90
33023;DHT22;19390;51.460;5.710;2023-02-28T09:03:46;10.50;99.90
33023;DHT22;19390;51.460;5.710;2023-02-28T09:06:14;11.10;99.90
33023;DHT22;19390;51.460;5.710;2023-02-28T09:08:41;10.40;99.90
33023;DHT22;19390;51.460;5.710;2023-02-28T09:11:07;11.20;99.90
33023;DHT22;19390;51.460;5.710;2023-02-28T09:13:34;11.20;99.90
33023;DHT22;19390;51.460;5.710;2023-02-28T09:16:01;10.90;99.90
33023;DHT22;19390;51.460;5.710;2023-02-28T09:18:27;9.50;99.90
33023;DHT22;19390;51.460;5.710;2023-02-28T09:20:53;10.90;99.90
33023;DHT22;19390;51.460;5.710;2023-02-28T09:23:19;12.70;99.90
33023;DHT22;19390;51.460;5.710;2023-02-28T09:25:53;11.10;99.90
33023;DHT22;19390;51.460;5.710;2023-02-28T09:28:19;7.90;99.90
33023;DHT22;19390;51.460;5.710;2023-02-28T09:30:47;8.70;99.90
33023;DHT22;19390;51.460;5.710;2023-02-28T09:33:14;9.70;99.90
33023;DHT22;19390;51.460;5.710;2023-02-28T09:35:40;8.20;99.90
33023;DHT22;19390;51.460;5.710;2023-02-28T09:38:06;8.60;99.90
33023;DHT22;19390;51.460;5.710;2023-02-28T09:40:40;6.00;99.90
33023;DHT22;19390;51.460;5.710;2023-02-28T09:43:11;4.50;99.90
33023;DHT22;19390;51.460;5.710;2023-02-28T09:45:42;4.20;99.90
33023;DHT22;19390;51.460;5.710;2023-02-28T09:48:19;4.40;99.90
33023;DHT22;19390;51.460;5.710;2023-02-28T09:50:59;4.50;99.90
33023;DHT22;19390;51.460;5.710;2023-02-28T09:53:31;4.90;99.90
33023;DHT22;19390;51.460;5.710;2023-02-28T09:56:25;4.80;99.90
33023;DHT22;19390;51.460;5.710;2023-02-28T10:06:50;8.70;99.90
33023;DHT22;19390;51.460;5.710;2023-02-28T10:09:29;9.00;99.90
33023;DHT22;19390;51.460;5.710;2023-02-28T10:12:00;10.70;99.90
33023;DHT22;19390;51.460;5.710;2023-02-28T10:14:29;8.90;99.90
33023;DHT22;19390;51.460;5.710;2023-02-28T10:17:06;9.10;99.90
33023;DHT22;19390;51.460;5.710;2023-02-28T10:19:54;9.50;99.90
33023;DHT22;19390;51.460;5.710;2023-02-28T10:22:34;11.20;99.90
33023;DHT22;19390;51.460;5.710;2023-02-28T10:25:04;8.60;99.90
33023;DHT22;19390;51.460;5.710;2023-02-28T10:27:31;9.60;99.90
33023;DHT22;19390;51.460;5.710;2023-02-28T10:30:03;9.80;99.90
33023;DHT22;19390;51.460;5.710;2023-02-28T10:32:32;9.60;99.90
33023;DHT22;19390;51.460;5.710;2023-02-28T10:37:44;10.30;99.90
33023;DHT22;19390;51.460;5.710;2023-02-28T10:43:04;8.70;99.90
33023;DHT22;19390;51.460;5.710;2023-02-28T10:45:34;9.40;99.90
33023;DHT22;19390;51.460;5.710;2023-02-28T10:50:51;8.30;99.90
33023;DHT22;19390;51.460;5.710;2023-02-28T11:01:39;8.00;99.90
33023;DHT22;19390;51.460;5.710;2023-02-28T11:07:24;8.80;99.90
33023;DHT22;19390;51.460;5.710;2023-02-28T11:09:50;7.90;99.90
33023;DHT22;19390;51.460;5.710;2023-02-28T11:12:38;8.20;99.90
33023;DHT22;19390;51.460;5.710;2023-02-28T11:15:18;6.90;99.90
33023;DHT22;19390;51.460;5.710;2023-02-28T11:20:39;9.50;99.90
33023;DHT22;19390;51.460;5.710;2023-02-28T11:23:11;9.50;99.90
33023;DHT22;19390;51.460;5.710;2023-02-28T11:25:38;8.00;99.90
33023;DHT22;19390;51.460;5.710;2023-02-28T11:28:37;9.20;99.90
33023;DHT22;19390;51.460;5.710;2023-02-28T11:33:52;10.00;99.90
33023;DHT22;19390;51.460;5.710;2023-02-28T11:36:27;10.40;99.90
33023;DHT22;19390;51.460;5.710;2023-02-28T11:38:56;9.10;99.90
33023;DHT22;19390;51.460;5.710;2023-02-28T11:41:52;9.20;99.90
33023;DHT22;19390;51.460;5.710;2023-02-28T11:44:45;11.40;99.90
33023;DHT22;19390;51.460;5.710;2023-02-28T11:50:00;9.00;99.90
33023;DHT22;19390;51.460;5.710;2023-02-28T12:00:44;9.90;99.90
33023;DHT22;19390;51.460;5.710;2023-02-28T12:03:22;11.90;99.90
33023;DHT22;19390;51.460;5.710;2023-02-28T12:11:51;10.00;99.90
33023;DHT22;19390;51.460;5.710;2023-02-28T12:14:32;9.10;99.90
33023;DHT22;19390;51.460;5.710;2023-02-28T12:19:49;10.60;99.90
33023;DHT22;19390;51.460;5.710;2023-02-28T12:22:32;9.60;99.90
33023;DHT22;19390;51.460;5.710;2023-02-28T12:27:34;11.10;99.90
33023;DHT22;19390;51.460;5.710;2023-02-28T12:30:16;11.00;99.90
33023;DHT22;19390;51.460;5.710;2023-02-28T12:33:07;9.40;99.90
33023;DHT22;19390;51.460;5.710;2023-02-28T12:38:21;10.00;99.90
33023;DHT22;19390;51.460;5.710;2023-02-28T12:41:00;11.60;99.90
33023;DHT22;19390;51.460;5.710;2023-02-28T12:43:32;11.30;99.90
33023;DHT22;19390;51.460;5.710;2023-02-28T12:46:03;12.20;99.90
33023;DHT22;19390;51.460;5.710;2023-02-28T12:48:39;9.10;99.90
33023;DHT22;19390;51.460;5.710;2023-02-28T12:51:07;11.00;99.90
33023;DHT22;19390;51.460;5.710;2023-02-28T13:05:02;10.00;99.90
33023;DHT22;19390;51.460;5.710;2023-02-28T13:07:41;11.00;99.90
33023;DHT22;19390;51.460;5.710;2023-02-28T13:10:12;8.90;99.90
33023;DHT22;19390;51.460;5.710;2023-02-28T13:12:50;9.90;99.90
33023;DHT22;19390;51.460;5.710;2023-02-28T13:17:42;10.00;99.90
33023;DHT22;19390;51.460;5.710;2023-02-28T13:20:21;12.10;99.90
33023;DHT22;19390;51.460;5.710;2023-02-28T13:22:50;12.30;99.90
33023;DHT22;19390;51.460;5.710;2023-02-28T13:28:00;10.90;99.90
33023;DHT22;19390;51.460;5.710;2023-02-28T13:33:28;10.80;99.90
33023;DHT22;19390;51.460;5.710;2023-02-28T13:38:54;9.70;99.90
33023;DHT22;19390;51.460;5.710;2023-02-28T13:55:06;12.10;99.90
33023;DHT22;19390;51.460;5.710;2023-02-28T13:58:04;12.50;99.90
33023;DHT22;19390;51.460;5.710;2023-02-28T14:03:46;11.60;99.90
33023;DHT22;19390;51.460;5.710;2023-02-28T14:06:52;10.00;99.90
33023;DHT22;19390;51.460;5.710;2023-02-28T14:11:52;10.90;99.90
33023;DHT22;19390;51.460;5.710;2023-02-28T14:17:03;11.10;99.90
33023;DHT22;19390;51.460;5.710;2023-02-28T14:19:31;12.50;99.90
33023;DHT22;19390;51.460;5.710;2023-02-28T14:27:54;11.70;99.90
33023;DHT22;19390;51.460;5.710;2023-02-28T14:33:22;11.20;99.90
33023;DHT22;19390;51.460;5.710;2023-02-28T14:36:00;9.60;99.90
33023;DHT22;19390;51.460;5.710;2023-02-28T14:38:31;9.60;99.90
33023;DHT22;19390;51.460;5.710;2023-02-28T14:41:00;10.00;99.90
33023;DHT22;19390;51.460;5.710;2023-02-28T14:43:28;10.60;99.90
33023;DHT22;19390;51.460;5.710;2023-02-28T14:45:58;9.20;99.90
33023;DHT22;19390;51.460;5.710;2023-02-28T14:48:25;9.10;99.90
33023;DHT22;19390;51.460;5.710;2023-02-28T14:50:57;9.70;99.90
33023;DHT22;19390;51.460;5.710;2023-02-28T14:53:27;10.90;99.90
33023;DHT22;19390;51.460;5.710;2023-02-28T14:55:54;9.80;99.90
33023;DHT22;19390;51.460;5.710;2023-02-28T14:58:26;9.30;99.90
33023;DHT22;19390;51.460;5.710;2023-02-28T15:00:53;9.80;99.90
33023;DHT22;19390;51.460;5.710;2023-02-28T15:05:56;8.30;99.90
33023;DHT22;19390;51.460;5.710;2023-02-28T15:08:23;8.10;99.90
33023;DHT22;19390;51.460;5.710;2023-02-28T15:13:46;8.20;99.90
33023;DHT22;19390;51.460;5.710;2023-02-28T15:18:48;8.70;99.90
33023;DHT22;19390;51.460;5.710;2023-02-28T15:21:20;8.90;99.90
33023;DHT22;19390;51.460;5.710;2023-02-28T15:26:27;8.00;99.90
33023;DHT22;19390;51.460;5.710;2023-02-28T15:29:26;7.90;99.90
33023;DHT22;19390;51.460;5.710;2023-02-28T15:32:04;8.00;99.90
33023;DHT22;19390;51.460;5.710;2023-02-28T15:34:42;8.40;99.90
33023;DHT22;19390;51.460;5.710;2023-02-28T15:39:58;7.50;99.90
33023;DHT22;19390;51.460;5.710;2023-02-28T15:42:29;7.30;99.90
33023;DHT22;19390;51.460;5.710;2023-02-28T15:44:57;7.30;99.90
33023;DHT22;19390;51.460;5.710;2023-02-28T15:47:25;7.10;99.90
33023;DHT22;19390;51.460;5.710;2023-02-28T15:49:53;7.50;99.90
33023;DHT22;19390;51.460;5.710;2023-02-28T15:54:58;7.50;99.90
33023;DHT22;19390;51.460;5.710;2023-02-28T15:57:26;7.40;99.90
33023;DHT22;19390;51.460;5.710;2023-02-28T16:00:00;6.70;99.90
33023;DHT22;19390;51.460;5.710;2023-02-28T16:02:35;7.00;99.90
33023;DHT22;19390;51.460;5.710;2023-02-28T16:07:37;7.30;99.90
33023;DHT22;19390;51.460;5.710;2023-02-28T16:10:04;7.30;99.90
33023;DHT22;19390;51.460;5.710;2023-02-28T16:12:31;7.20;99.90
33023;DHT22;19390;51.460;5.710;2023-02-28T16:15:14;7.10;99.90
33023;DHT22;19390;51.460;5.710;2023-02-28T16:17:42;6.70;99.90
33023;DHT22;19390;51.460;5.710;2023-02-28T16:20:21;6.80;99.90
33023;DHT22;19390;51.460;5.710;2023-02-28T16:22:47;6.40;99.90
33023;DHT22;19390;51.460;5.710;2023-02-28T16:25:18;6.20;99.90
33023;DHT22;19390;51.460;5.710;2023-02-28T16:27:47;6.00;99.90
33023;DHT22;19390;51.460;5.710;2023-02-28T16:30:23;5.70;99.90
33023;DHT22;19390;51.460;5.710;2023-02-28T16:32:49;5.50;99.90
33023;DHT22;19390;51.460;5.710;2023-02-28T16:35:15;5.60;99.90
33023;DHT22;19390;51.460;5.710;2023-02-28T16:37:41;5.50;99.90
33023;DHT22;19390;51.460;5.710;2023-02-28T16:40:13;5.20;99.90
33023;DHT22;19390;51.460;5.710;2023-02-28T16:42:40;5.10;99.90
33023;DHT22;19390;51.460;5.710;2023-02-28T16:45:10;4.90;99.90
33023;DHT22;19390;51.460;5.710;2023-02-28T16:47:36;4.80;99.90
33023;DHT22;19390;51.460;5.710;2023-02-28T16:50:12;4.70;99.90
33023;DHT22;19390;51.460;5.710;2023-02-28T16:52:38;4.50;99.90
33023;DHT22;19390;51.460;5.710;2023-02-28T16:55:04;4.30;99.90
33023;DHT22;19390;51.460;5.710;2023-02-28T16:57:29;4.40;99.90
33023;DHT22;19390;51.460;5.710;2023-02-28T16:59:55;4.30;99.90
33023;DHT22;19390;51.460;5.710;2023-02-28T17:02:21;4.20;99.90
33023;DHT22;19390;51.460;5.710;2023-02-28T17:04:46;4.00;99.90
33023;DHT22;19390;51.460;5.710;2023-02-28T17:07:14;4.00;99.90
33023;DHT22;19390;51.460;5.710;2023-02-28T17:09:41;3.90;99.90
33023;DHT22;19390;51.460;5.710;2023-02-28T17:12:08;3.70;99.90
33023;DHT22;19390;51.460;5.710;2023-02-28T17:14:34;3.60;99.90
33023;DHT22;19390;51.460;5.710;2023-02-28T17:17:00;3.60;99.90
33023;DHT22;19390;51.460;5.710;2023-02-28T17:19:26;3.50;99.90
33023;DHT22;19390;51.460;5.710;2023-02-28T17:21:53;3.40;99.90
33023;DHT22;19390;51.460;5.710;2023-02-28T17:24:19;3.30;99.90
33023;DHT22;19390;51.460;5.710;2023-02-28T17:26:44;3.20;99.90
33023;DHT22;19390;51.460;5.710;2023-02-28T17:29:19;3.10;99.90
33023;DHT22;19390;51.460;5.710;2023-02-28T17:31:45;3.00;99.90
33023;DHT22;19390;51.460;5.710;2023-02-28T17:34:11;3.00;99.90
33023;DHT22;19390;51.460;5.710;2023-02-28T17:36:44;2.90;99.90
33023;DHT22;19390;51.460;5.710;2023-02-28T17:39:11;2.80;99.90
33023;DHT22;19390;51.460;5.710;2023-02-28T17:41:42;2.70;99.90
33023;DHT22;19390;51.460;5.710;2023-02-28T17:44:08;2.70;99.90
33023;DHT22;19390;51.460;5.710;2023-02-28T17:46:34;2.60;99.90
33023;DHT22;19390;51.460;5.710;2023-02-28T17:49:00;2.60;99.90
33023;DHT22;19390;51.460;5.710;2023-02-28T17:51:26;2.50;99.90
33023;DHT22;19390;51.460;5.710;2023-02-28T17:53:52;2.40;99.90
33023;DHT22;19390;51.460;5.710;2023-02-28T17:56:23;2.30;99.90
33023;DHT22;19390;51.460;5.710;2023-02-28T17:58:51;2.20;99.90
33023;DHT22;19390;51.460;5.710;2023-02-28T18:01:17;2.10;99.90
33023;DHT22;19390;51.460;5.710;2023-02-28T18:03:43;1.90;99.90
33023;DHT22;19390;51.460;5.710;2023-02-28T18:06:22;1.80;99.90
33023;DHT22;19390;51.460;5.710;2023-02-28T18:08:48;1.70;1.00
33023;DHT22;19390;51.460;5.710;2023-02-28T18:11:14;1.20;1.00
33023;DHT22;19390;51.460;5.710;2023-02-28T18:13:50;0.90;1.00
33023;DHT22;19390;51.460;5.710;2023-02-28T18:16:17;0.80;1.00
33023;DHT22;19390;51.460;5.710;2023-02-28T18:18:43;0.80;1.00
33023;DHT22;19390;51.460;5.710;2023-02-28T18:21:11;0.70;1.00
33023;DHT22;19390;51.460;5.710;2023-02-28T18:23:38;0.70;1.00
33023;DHT22;19390;51.460;5.710;2023-02-28T18:26:12;0.50;1.00
33023;DHT22;19390;51.460;5.710;2023-02-28T18:28:39;0.60;1.00
33023;DHT22;19390;51.460;5.710;2023-02-28T18:31:07;0.70;1.00
33023;DHT22;19390;51.460;5.710;2023-02-28T18:33:34;0.70;1.00
33023;DHT22;19390;51.460;5.710;2023-02-28T18:36:00;0.60;1.00
33023;DHT22;19390;51.460;5.710;2023-02-28T18:38:26;0.60;1.00
33023;DHT22;19390;51.460;5.710;2023-02-28T18:40:58;0.60;1.00
33023;DHT22;19390;51.460;5.710;2023-02-28T18:43:28;0.50;1.00